sensor_id;sensor_type;location;lat;lon;timestamp;P1;durP1;ratioP1;P2;durP2;ratioP2
11396;SDS011;5754;43.726;7.416;2022-10-16T07:41:07;6.37;;;4.93;;
11396;SDS011;5754;43.726;7.416;2022-10-16T07:43:45;6.12;;;4.53;;
11396;SDS011;5754;43.726;7.416;2022-10-16T07:46:21;5.73;;;4.90;;
11396;SDS011;5754;43.726;7.416;2022-10-16T07:48:56;7.10;;;4.95;;
11396;SDS011;5754;43.726;7.416;2022-10-16T07:51:30;5.55;;;4.62;;
11396;SDS011;5754;43.726;7.416;2022-10-16T07:54:05;6.90;;;5.12;;
11396;SDS011;5754;43.726;7.416;2022-10-16T07:56:40;8.63;;;4.82;;
11396;SDS011;5754;43.726;7.416;2022-10-16T07:59:15;6.07;;;4.65;;
11396;SDS011;5754;43.726;7.416;2022-10-16T08:01:50;8.15;;;4.50;;
11396;SDS011;5754;43.726;7.416;2022-10-16T08:04:24;6.93;;;4.78;;
11396;SDS011;5754;43.726;7.416;2022-10-16T08:07:00;6.28;;;4.55;;
11396;SDS011;5754;43.726;7.416;2022-10-16T08:09:34;6.15;;;4.70;;
11396;SDS011;5754;43.726;7.416;2022-10-16T08:12:09;8.27;;;4.95;;
11396;SDS011;5754;43.726;7.416;2022-10-16T08:14:44;7.87;;;5.07;;
11396;SDS011;5754;43.726;7.416;2022-10-16T08:17:19;4.97;;;4.50;;
11396;SDS011;5754;43.726;7.416;2022-10-16T08:19:54;5.50;;;5.00;;
11396;SDS011;5754;43.726;7.416;2022-10-16T08:22:28;5.50;;;4.57;;
11396;SDS011;5754;43.726;7.416;2022-10-16T08:25:03;6.97;;;4.97;;
11396;SDS011;5754;43.726;7.416;2022-10-16T08:27:38;6.85;;;4.85;;
11396;SDS011;5754;43.726;7.416;2022-10-16T08:30:12;5.40;;;4.72;;
11396;SDS011;5754;43.726;7.416;2022-10-16T08:32:47;7.12;;;4.57;;
11396;SDS011;5754;43.726;7.416;2022-10-16T08:35:21;5.78;;;4.40;;
11396;SDS011;5754;43.726;7.416;2022-10-16T08:37:56;8.20;;;5.07;;
11396;SDS011;5754;43.726;7.416;2022-10-16T08:40:31;5.80;;;4.37;;
11396;SDS011;5754;43.726;7.416;2022-10-16T08:43:14;5.65;;;5.05;;
11396;SDS011;5754;43.726;7.416;2022-10-16T08:48:47;7.00;;;5.05;;
11396;SDS011;5754;43.726;7.416;2022-10-16T08:51:24;7.82;;;5.10;;
11396;SDS011;5754;43.726;7.416;2022-10-16T08:54:04;6.03;;;4.87;;
11396;SDS011;5754;43.726;7.416;2022-10-16T08:56:39;6.53;;;4.80;;
11396;SDS011;5754;43.726;7.416;2022-10-16T08:59:14;6.85;;;5.00;;
11396;SDS011;5754;43.726;7.416;2022-10-16T09:01:50;4.87;;;4.37;;
11396;SDS011;5754;43.726;7.416;2022-10-16T09:07:26;6.68;;;4.53;;
11396;SDS011;5754;43.726;7.416;2022-10-16T09:13:14;5.20;;;4.28;;
11396;SDS011;5754;43.726;7.416;2022-10-16T09:16:04;5.32;;;4.40;;
11396;SDS011;5754;43.726;7.416;2022-10-16T09:21:44;6.87;;;4.93;;
11396;SDS011;5754;43.726;7.416;2022-10-16T09:24:20;5.28;;;4.00;;
11396;SDS011;5754;43.726;7.416;2022-10-16T09:26:57;4.90;;;3.97;;
11396;SDS011;5754;43.726;7.416;2022-10-16T09:29:32;6.68;;;3.70;;
11396;SDS011;5754;43.726;7.416;2022-10-16T09:32:27;5.72;;;3.85;;
11396;SDS011;5754;43.726;7.416;2022-10-16T09:35:02;3.95;;;3.50;;
11396;SDS011;5754;43.726;7.416;2022-10-16T09:37:36;5.75;;;3.58;;
11396;SDS011;5754;43.726;7.416;2022-10-16T09:40:31;4.55;;;3.65;;
11396;SDS011;5754;43.726;7.416;2022-10-16T09:46:05;5.90;;;3.72;;
11396;SDS011;5754;43.726;7.416;2022-10-16T09:48:44;6.22;;;3.87;;
11396;SDS011;5754;43.726;7.416;2022-10-16T09:51:28;5.10;;;3.40;;
11396;SDS011;5754;43.726;7.416;2022-10-16T09:57:06;7.35;;;3.60;;
11396;SDS011;5754;43.726;7.416;2022-10-16T09:59:50;5.25;;;3.30;;
11396;SDS011;5754;43.726;7.416;2022-10-16T10:02:29;6.65;;;3.80;;
11396;SDS011;5754;43.726;7.416;2022-10-16T10:05:05;8.00;;;4.15;;
11396;SDS011;5754;43.726;7.416;2022-10-16T10:07:42;6.37;;;3.97;;
11396;SDS011;5754;43.726;7.416;2022-10-16T10:10:23;8.50;;;4.45;;
11396;SDS011;5754;43.726;7.416;2022-10-16T10:12:59;6.40;;;3.90;;
11396;SDS011;5754;43.726;7.416;2022-10-16T10:15:34;8.65;;;4.37;;
11396;SDS011;5754;43.726;7.416;2022-10-16T10:18:16;5.97;;;4.37;;
11396;SDS011;5754;43.726;7.416;2022-10-16T10:20:59;5.53;;;4.07;;
11396;SDS011;5754;43.726;7.416;2022-10-16T10:23:34;10.90;;;4.68;;
11396;SDS011;5754;43.726;7.416;2022-10-16T10:26:11;8.00;;;5.80;;
11396;SDS011;5754;43.726;7.416;2022-10-16T10:29:06;6.97;;;3.97;;
11396;SDS011;5754;43.726;7.416;2022-10-16T10:31:53;9.57;;;3.92;;
11396;SDS011;5754;43.726;7.416;2022-10-16T10:34:46;7.97;;;3.90;;
11396;SDS011;5754;43.726;7.416;2022-10-16T10:37:30;8.40;;;4.30;;
11396;SDS011;5754;43.726;7.416;2022-10-16T10:40:29;11.05;;;4.43;;
11396;SDS011;5754;43.726;7.416;2022-10-16T10:43:07;12.65;;;4.37;;
11396;SDS011;5754;43.726;7.416;2022-10-16T10:45:46;8.98;;;4.22;;
11396;SDS011;5754;43.726;7.416;2022-10-16T10:52:43;5.12;;;4.10;;
11396;SDS011;5754;43.726;7.416;2022-10-16T10:56:29;7.75;;;4.43;;
11396;SDS011;5754;43.726;7.416;2022-10-16T11:00:14;6.40;;;3.67;;
11396;SDS011;5754;43.726;7.416;2022-10-16T11:03:27;7.33;;;3.90;;
11396;SDS011;5754;43.726;7.416;2022-10-16T11:06:52;9.90;;;4.30;;
11396;SDS011;5754;43.726;7.416;2022-10-16T11:09:34;10.88;;;4.35;;
11396;SDS011;5754;43.726;7.416;2022-10-16T11:12:21;6.90;;;4.07;;
11396;SDS011;5754;43.726;7.416;2022-10-16T11:15:02;12.00;;;4.37;;
11396;SDS011;5754;43.726;7.416;2022-10-16T11:17:50;7.03;;;3.93;;
11396;SDS011;5754;43.726;7.416;2022-10-16T11:20:28;7.60;;;4.03;;
11396;SDS011;5754;43.726;7.416;2022-10-16T11:23:18;9.53;;;4.63;;
11396;SDS011;5754;43.726;7.416;2022-10-16T11:25:57;9.47;;;4.70;;
11396;SDS011;5754;43.726;7.416;2022-10-16T11:28:34;9.87;;;4.27;;
11396;SDS011;5754;43.726;7.416;2022-10-16T11:40:34;6.57;;;4.03;;
11396;SDS011;5754;43.726;7.416;2022-10-16T11:43:20;7.60;;;3.80;;
11396;SDS011;5754;43.726;7.416;2022-10-16T11:45:57;6.37;;;3.93;;
11396;SDS011;5754;43.726;7.416;2022-10-16T11:48:38;7.87;;;4.30;;
11396;SDS011;5754;43.726;7.416;2022-10-16T11:54:14;9.50;;;4.12;;
11396;SDS011;5754;43.726;7.416;2022-10-16T11:56:52;7.20;;;3.80;;
11396;SDS011;5754;43.726;7.416;2022-10-16T11:59:45;6.73;;;3.50;;
11396;SDS011;5754;43.726;7.416;2022-10-16T12:07:03;7.90;;;4.73;;
11396;SDS011;5754;43.726;7.416;2022-10-16T12:09:39;6.13;;;3.80;;
11396;SDS011;5754;43.726;7.416;2022-10-16T12:12:28;5.72;;;4.35;;
11396;SDS011;5754;43.726;7.416;2022-10-16T12:15:22;6.80;;;4.60;;
11396;SDS011;5754;43.726;7.416;2022-10-16T12:18:02;6.80;;;5.22;;
11396;SDS011;5754;43.726;7.416;2022-10-16T12:20:37;7.53;;;4.47;;
11396;SDS011;5754;43.726;7.416;2022-10-16T12:23:20;8.73;;;4.50;;
11396;SDS011;5754;43.726;7.416;2022-10-16T12:25:59;8.57;;;4.30;;
11396;SDS011;5754;43.726;7.416;2022-10-16T12:28:36;7.82;;;4.55;;
11396;SDS011;5754;43.726;7.416;2022-10-16T12:31:12;8.40;;;4.63;;
11396;SDS011;5754;43.726;7.416;2022-10-16T12:37:43;7.13;;;4.60;;
11396;SDS011;5754;43.726;7.416;2022-10-16T12:40:26;12.03;;;5.07;;
11396;SDS011;5754;43.726;7.416;2022-10-16T12:43:10;7.30;;;4.50;;
11396;SDS011;5754;43.726;7.416;2022-10-16T12:45:45;8.00;;;4.53;;
11396;SDS011;5754;43.726;7.416;2022-10-16T12:48:21;8.43;;;4.63;;
11396;SDS011;5754;43.726;7.416;2022-10-16T12:50:57;8.30;;;4.50;;
11396;SDS011;5754;43.726;7.416;2022-10-16T12:53:33;7.00;;;4.63;;
11396;SDS011;5754;43.726;7.416;2022-10-16T12:56:19;8.93;;;4.50;;
11396;SDS011;5754;43.726;7.416;2022-10-16T13:06:13;7.75;;;4.40;;
11396;SDS011;5754;43.726;7.416;2022-10-16T13:11:49;7.57;;;4.03;;
11396;SDS011;5754;43.726;7.416;2022-10-16T13:14:33;7.93;;;4.28;;
11396;SDS011;5754;43.726;7.416;2022-10-16T13:17:22;9.97;;;4.60;;
11396;SDS011;5754;43.726;7.416;2022-10-16T13:20:06;6.07;;;4.40;;
11396;SDS011;5754;43.726;7.416;2022-10-16T13:30:54;6.33;;;4.97;;
11396;SDS011;5754;43.726;7.416;2022-10-16T13:33:41;9.50;;;5.07;;
11396;SDS011;5754;43.726;7.416;2022-10-16T13:36:50;6.43;;;4.50;;
11396;SDS011;5754;43.726;7.416;2022-10-16T13:39:28;8.67;;;4.90;;
11396;SDS011;5754;43.726;7.416;2022-10-16T13:42:13;9.83;;;5.23;;
11396;SDS011;5754;43.726;7.416;2022-10-16T13:44:50;6.93;;;4.97;;
11396;SDS011;5754;43.726;7.416;2022-10-16T13:47:25;7.37;;;5.73;;
11396;SDS011;5754;43.726;7.416;2022-10-16T13:50:11;7.03;;;6.10;;
11396;SDS011;5754;43.726;7.416;2022-10-16T13:52:46;7.33;;;4.87;;
11396;SDS011;5754;43.726;7.416;2022-10-16T13:55:21;7.53;;;4.83;;
11396;SDS011;5754;43.726;7.416;2022-10-16T13:58:04;8.80;;;4.50;;
11396;SDS011;5754;43.726;7.416;2022-10-16T14:00:38;7.70;;;4.80;;
11396;SDS011;5754;43.726;7.416;2022-10-16T14:03:14;7.20;;;5.03;;
11396;SDS011;5754;43.726;7.416;2022-10-16T14:05:49;7.13;;;4.50;;
11396;SDS011;5754;43.726;7.416;2022-10-16T14:08:25;8.43;;;4.80;;
11396;SDS011;5754;43.726;7.416;2022-10-16T14:11:00;10.50;;;4.87;;
11396;SDS011;5754;43.726;7.416;2022-10-16T14:13:38;9.33;;;5.07;;
11396;SDS011;5754;43.726;7.416;2022-10-16T14:16:17;6.07;;;4.80;;
11396;SDS011;5754;43.726;7.416;2022-10-16T14:18:57;6.90;;;5.17;;
11396;SDS011;5754;43.726;7.416;2022-10-16T14:21:32;8.80;;;5.97;;
11396;SDS011;5754;43.726;7.416;2022-10-16T14:24:10;6.87;;;5.17;;
11396;SDS011;5754;43.726;7.416;2022-10-16T14:26:46;7.20;;;4.90;;
11396;SDS011;5754;43.726;7.416;2022-10-16T14:29:24;7.80;;;4.97;;
11396;SDS011;5754;43.726;7.416;2022-10-16T14:31:59;8.83;;;5.43;;
11396;SDS011;5754;43.726;7.416;2022-10-16T14:34:36;8.43;;;5.27;;
11396;SDS011;5754;43.726;7.416;2022-10-16T14:37:15;11.57;;;5.27;;
11396;SDS011;5754;43.726;7.416;2022-10-16T14:39:55;7.50;;;5.40;;
11396;SDS011;5754;43.726;7.416;2022-10-16T14:42:30;11.73;;;5.30;;
11396;SDS011;5754;43.726;7.416;2022-10-16T14:45:07;6.47;;;5.30;;
11396;SDS011;5754;43.726;7.416;2022-10-16T14:47:50;8.50;;;4.97;;
11396;SDS011;5754;43.726;7.416;2022-10-16T14:50:25;9.20;;;5.10;;
11396;SDS011;5754;43.726;7.416;2022-10-16T14:53:01;12.13;;;5.43;;
11396;SDS011;5754;43.726;7.416;2022-10-16T14:55:36;6.73;;;4.63;;
11396;SDS011;5754;43.726;7.416;2022-10-16T14:58:15;8.13;;;4.93;;
11396;SDS011;5754;43.726;7.416;2022-10-16T15:00:51;8.83;;;5.00;;
11396;SDS011;5754;43.726;7.416;2022-10-16T15:03:26;6.73;;;5.00;;
11396;SDS011;5754;43.726;7.416;2022-10-16T15:06:00;10.27;;;5.33;;
11396;SDS011;5754;43.726;7.416;2022-10-16T15:08:35;6.30;;;5.10;;
11396;SDS011;5754;43.726;7.416;2022-10-16T15:11:13;8.77;;;4.47;;
11396;SDS011;5754;43.726;7.416;2022-10-16T15:13:48;5.33;;;3.90;;
11396;SDS011;5754;43.726;7.416;2022-10-16T15:16:24;7.93;;;4.30;;
11396;SDS011;5754;43.726;7.416;2022-10-16T15:18:59;6.03;;;4.10;;
11396;SDS011;5754;43.726;7.416;2022-10-16T15:21:33;4.90;;;4.40;;
11396;SDS011;5754;43.726;7.416;2022-10-16T15:24:08;5.53;;;4.00;;
11396;SDS011;5754;43.726;7.416;2022-10-16T15:26:44;7.97;;;4.57;;
11396;SDS011;5754;43.726;7.416;2022-10-16T15:29:23;6.20;;;4.37;;
11396;SDS011;5754;43.726;7.416;2022-10-16T15:31:57;7.53;;;4.80;;
11396;SDS011;5754;43.726;7.416;2022-10-16T15:34:32;7.13;;;4.77;;
11396;SDS011;5754;43.726;7.416;2022-10-16T15:37:08;7.20;;;5.63;;
11396;SDS011;5754;43.726;7.416;2022-10-16T15:39:45;9.23;;;5.00;;
11396;SDS011;5754;43.726;7.416;2022-10-16T15:42:21;8.33;;;4.77;;
11396;SDS011;5754;43.726;7.416;2022-10-16T15:44:56;6.83;;;5.00;;
11396;SDS011;5754;43.726;7.416;2022-10-16T15:47:31;11.90;;;5.33;;
11396;SDS011;5754;43.726;7.416;2022-10-16T15:50:05;8.20;;;4.70;;
11396;SDS011;5754;43.726;7.416;2022-10-16T15:52:40;10.83;;;5.00;;
11396;SDS011;5754;43.726;7.416;2022-10-16T15:55:14;6.77;;;4.53;;
11396;SDS011;5754;43.726;7.416;2022-10-16T15:57:49;8.47;;;4.83;;
11396;SDS011;5754;43.726;7.416;2022-10-16T16:00:24;9.50;;;4.90;;
11396;SDS011;5754;43.726;7.416;2022-10-16T16:03:02;7.87;;;5.17;;
11396;SDS011;5754;43.726;7.416;2022-10-16T16:05:38;8.67;;;4.90;;
11396;SDS011;5754;43.726;7.416;2022-10-16T16:08:17;10.30;;;5.53;;
11396;SDS011;5754;43.726;7.416;2022-10-16T16:11:01;8.97;;;5.37;;
11396;SDS011;5754;43.726;7.416;2022-10-16T16:13:36;8.83;;;4.93;;
11396;SDS011;5754;43.726;7.416;2022-10-16T16:16:12;8.23;;;5.70;;
11396;SDS011;5754;43.726;7.416;2022-10-16T16:18:48;13.00;;;5.73;;
11396;SDS011;5754;43.726;7.416;2022-10-16T16:21:26;7.03;;;5.13;;
11396;SDS011;5754;43.726;7.416;2022-10-16T16:24:01;8.17;;;4.90;;
11396;SDS011;5754;43.726;7.416;2022-10-16T16:26:42;7.90;;;5.00;;
11396;SDS011;5754;43.726;7.416;2022-10-16T16:29:19;9.03;;;4.67;;
11396;SDS011;5754;43.726;7.416;2022-10-16T16:31:56;7.03;;;4.70;;
11396;SDS011;5754;43.726;7.416;2022-10-16T16:34:33;6.40;;;4.80;;
11396;SDS011;5754;43.726;7.416;2022-10-16T16:37:08;7.90;;;4.87;;
11396;SDS011;5754;43.726;7.416;2022-10-16T16:39:42;8.80;;;5.60;;
11396;SDS011;5754;43.726;7.416;2022-10-16T16:42:17;13.10;;;5.47;;
11396;SDS011;5754;43.726;7.416;2022-10-16T16:44:51;8.30;;;4.73;;
11396;SDS011;5754;43.726;7.416;2022-10-16T16:47:25;9.43;;;5.03;;
11396;SDS011;5754;43.726;7.416;2022-10-16T16:50:00;8.87;;;5.20;;
11396;SDS011;5754;43.726;7.416;2022-10-16T16:52:37;7.27;;;5.20;;
11396;SDS011;5754;43.726;7.416;2022-10-16T16:55:14;9.60;;;5.80;;
11396;SDS011;5754;43.726;7.416;2022-10-16T16:57:49;8.83;;;5.87;;
11396;SDS011;5754;43.726;7.416;2022-10-16T17:00:23;6.80;;;4.80;;
11396;SDS011;5754;43.726;7.416;2022-10-16T17:03:00;7.50;;;4.47;;
11396;SDS011;5754;43.726;7.416;2022-10-16T17:05:35;8.93;;;4.83;;
11396;SDS011;5754;43.726;7.416;2022-10-16T17:08:09;5.77;;;4.93;;
11396;SDS011;5754;43.726;7.416;2022-10-16T17:10:44;4.97;;;4.47;;
11396;SDS011;5754;43.726;7.416;2022-10-16T17:13:24;7.30;;;5.60;;
11396;SDS011;5754;43.726;7.416;2022-10-16T17:15:58;8.63;;;5.70;;
11396;SDS011;5754;43.726;7.416;2022-10-16T17:18:35;8.53;;;4.60;;
11396;SDS011;5754;43.726;7.416;2022-10-16T17:21:10;5.90;;;5.00;;
11396;SDS011;5754;43.726;7.416;2022-10-16T17:23:44;7.87;;;5.10;;
11396;SDS011;5754;43.726;7.416;2022-10-16T17:26:19;6.30;;;4.33;;
11396;SDS011;5754;43.726;7.416;2022-10-16T17:28:56;9.50;;;4.73;;
11396;SDS011;5754;43.726;7.416;2022-10-16T17:31:34;7.83;;;4.80;;
11396;SDS011;5754;43.726;7.416;2022-10-16T17:34:10;7.63;;;4.63;;
11396;SDS011;5754;43.726;7.416;2022-10-16T17:36:45;6.07;;;5.27;;
11396;SDS011;5754;43.726;7.416;2022-10-16T17:39:20;7.80;;;5.30;;
11396;SDS011;5754;43.726;7.416;2022-10-16T17:41:55;6.70;;;4.97;;
11396;SDS011;5754;43.726;7.416;2022-10-16T17:44:29;10.03;;;5.27;;
11396;SDS011;5754;43.726;7.416;2022-10-16T17:47:06;7.47;;;4.73;;
11396;SDS011;5754;43.726;7.416;2022-10-16T17:49:41;5.77;;;4.20;;
11396;SDS011;5754;43.726;7.416;2022-10-16T17:52:16;8.37;;;5.37;;
11396;SDS011;5754;43.726;7.416;2022-10-16T17:54:50;9.57;;;5.20;;
11396;SDS011;5754;43.726;7.416;2022-10-16T17:57:28;7.33;;;4.97;;
11396;SDS011;5754;43.726;7.416;2022-10-16T18:00:03;9.40;;;5.00;;
11396;SDS011;5754;43.726;7.416;2022-10-16T18:02:38;8.37;;;4.87;;
11396;SDS011;5754;43.726;7.416;2022-10-16T18:05:14;6.63;;;4.37;;
11396;SDS011;5754;43.726;7.416;2022-10-16T18:07:49;4.87;;;4.13;;
11396;SDS011;5754;43.726;7.416;2022-10-16T18:10:23;8.73;;;4.37;;
11396;SDS011;5754;43.726;7.416;2022-10-16T18:12:58;7.13;;;5.00;;
11396;SDS011;5754;43.726;7.416;2022-10-16T18:15:32;8.60;;;5.10;;
11396;SDS011;5754;43.726;7.416;2022-10-16T18:18:07;8.40;;;4.90;;
11396;SDS011;5754;43.726;7.416;2022-10-16T18:23:25;9.97;;;6.00;;
11396;SDS011;5754;43.726;7.416;2022-10-16T18:26:04;6.50;;;5.00;;
11396;SDS011;5754;43.726;7.416;2022-10-16T18:28:38;7.63;;;4.67;;
11396;SDS011;5754;43.726;7.416;2022-10-16T18:31:14;7.07;;;4.50;;
11396;SDS011;5754;43.726;7.416;2022-10-16T18:33:49;8.87;;;4.43;;
11396;SDS011;5754;43.726;7.416;2022-10-16T18:36:27;7.90;;;5.20;;
11396;SDS011;5754;43.726;7.416;2022-10-16T18:39:03;6.43;;;4.67;;
11396;SDS011;5754;43.726;7.416;2022-10-16T18:41:43;7.13;;;4.33;;
11396;SDS011;5754;43.726;7.416;2022-10-16T18:44:18;5.30;;;4.40;;
11396;SDS011;5754;43.726;7.416;2022-10-16T18:46:53;8.27;;;5.00;;
11396;SDS011;5754;43.726;7.416;2022-10-16T18:49:29;5.90;;;4.80;;
11396;SDS011;5754;43.726;7.416;2022-10-16T18:52:04;6.60;;;4.27;;
11396;SDS011;5754;43.726;7.416;2022-10-16T18:54:38;7.33;;;4.30;;
11396;SDS011;5754;43.726;7.416;2022-10-16T18:57:15;5.57;;;4.47;;
11396;SDS011;5754;43.726;7.416;2022-10-16T18:59:50;7.10;;;4.57;;
11396;SDS011;5754;43.726;7.416;2022-10-16T19:02:25;6.20;;;4.57;;
11396;SDS011;5754;43.726;7.416;2022-10-16T19:04:59;8.73;;;4.50;;
11396;SDS011;5754;43.726;7.416;2022-10-16T19:07:35;8.93;;;4.70;;
11396;SDS011;5754;43.726;7.416;2022-10-16T19:10:09;6.90;;;4.67;;
11396;SDS011;5754;43.726;7.416;2022-10-16T19:12:44;4.33;;;3.90;;
11396;SDS011;5754;43.726;7.416;2022-10-16T19:15:18;7.07;;;4.37;;
11396;SDS011;5754;43.726;7.416;2022-10-16T19:17:54;6.90;;;4.23;;
11396;SDS011;5754;43.726;7.416;2022-10-16T19:20:29;6.10;;;3.63;;
11396;SDS011;5754;43.726;7.416;2022-10-16T19:23:04;5.53;;;3.77;;
11396;SDS011;5754;43.726;7.416;2022-10-16T19:25:39;6.73;;;4.17;;
11396;SDS011;5754;43.726;7.416;2022-10-16T19:28:15;6.40;;;3.97;;
11396;SDS011;5754;43.726;7.416;2022-10-16T19:30:50;4.83;;;3.83;;
11396;SDS011;5754;43.726;7.416;2022-10-16T19:33:25;5.07;;;4.00;;
11396;SDS011;5754;43.726;7.416;2022-10-16T19:36:09;6.43;;;5.03;;
11396;SDS011;5754;43.726;7.416;2022-10-16T19:38:44;5.43;;;4.40;;
11396;SDS011;5754;43.726;7.416;2022-10-16T19:41:20;6.73;;;4.63;;
11396;SDS011;5754;43.726;7.416;2022-10-16T19:43:59;4.60;;;4.20;;
11396;SDS011;5754;43.726;7.416;2022-10-16T19:46:35;5.47;;;4.70;;
11396;SDS011;5754;43.726;7.416;2022-10-16T19:49:10;5.47;;;4.83;;
11396;SDS011;5754;43.726;7.416;2022-10-16T19:51:45;5.70;;;4.43;;
11396;SDS011;5754;43.726;7.416;2022-10-16T19:54:20;6.77;;;4.47;;
11396;SDS011;5754;43.726;7.416;2022-10-16T19:56:54;4.20;;;3.80;;
11396;SDS011;5754;43.726;7.416;2022-10-16T19:59:33;5.83;;;5.17;;
11396;SDS011;5754;43.726;7.416;2022-10-16T20:02:08;6.13;;;4.13;;
11396;SDS011;5754;43.726;7.416;2022-10-16T20:04:42;5.70;;;4.27;;
11396;SDS011;5754;43.726;7.416;2022-10-16T20:07:17;4.53;;;4.13;;
11396;SDS011;5754;43.726;7.416;2022-10-16T20:09:52;6.67;;;4.17;;
11396;SDS011;5754;43.726;7.416;2022-10-16T20:12:29;7.57;;;4.03;;
11396;SDS011;5754;43.726;7.416;2022-10-16T20:15:04;4.33;;;3.73;;
11396;SDS011;5754;43.726;7.416;2022-10-16T20:17:39;7.30;;;4.43;;
11396;SDS011;5754;43.726;7.416;2022-10-16T20:20:14;6.93;;;4.00;;
11396;SDS011;5754;43.726;7.416;2022-10-16T20:22:48;4.37;;;3.87;;
11396;SDS011;5754;43.726;7.416;2022-10-16T20:25:23;6.17;;;4.10;;
11396;SDS011;5754;43.726;7.416;2022-10-16T20:28:00;5.27;;;3.90;;
11396;SDS011;5754;43.726;7.416;2022-10-16T20:30:37;7.50;;;4.17;;
11396;SDS011;5754;43.726;7.416;2022-10-16T20:33:12;5.33;;;3.70;;
11396;SDS011;5754;43.726;7.416;2022-10-16T20:35:48;5.77;;;3.97;;
11396;SDS011;5754;43.726;7.416;2022-10-16T20:38:22;6.97;;;4.33;;
11396;SDS011;5754;43.726;7.416;2022-10-16T20:41:01;4.97;;;4.00;;
11396;SDS011;5754;43.726;7.416;2022-10-16T20:43:38;4.47;;;3.80;;
11396;SDS011;5754;43.726;7.416;2022-10-16T20:46:13;4.93;;;4.43;;
11396;SDS011;5754;43.726;7.416;2022-10-16T20:48:49;4.63;;;4.17;;
11396;SDS011;5754;43.726;7.416;2022-10-16T20:51:26;4.90;;;4.43;;
11396;SDS011;5754;43.726;7.416;2022-10-16T20:54:02;5.20;;;4.30;;
11396;SDS011;5754;43.726;7.416;2022-10-16T20:56:37;6.13;;;4.57;;
11396;SDS011;5754;43.726;7.416;2022-10-16T20:59:11;6.97;;;4.57;;
11396;SDS011;5754;43.726;7.416;2022-10-16T21:01:46;5.60;;;4.27;;
11396;SDS011;5754;43.726;7.416;2022-10-16T21:04:20;8.47;;;4.83;;
11396;SDS011;5754;43.726;7.416;2022-10-16T21:06:55;6.10;;;4.40;;
11396;SDS011;5754;43.726;7.416;2022-10-16T21:09:30;7.57;;;4.60;;
11396;SDS011;5754;43.726;7.416;2022-10-16T21:12:04;5.70;;;4.43;;
11396;SDS011;5754;43.726;7.416;2022-10-16T21:14:39;6.37;;;4.20;;
11396;SDS011;5754;43.726;7.416;2022-10-16T21:17:15;5.67;;;4.90;;
11396;SDS011;5754;43.726;7.416;2022-10-16T21:19:50;7.73;;;4.83;;
11396;SDS011;5754;43.726;7.416;2022-10-16T21:22:27;7.73;;;5.20;;
11396;SDS011;5754;43.726;7.416;2022-10-16T21:25:04;5.73;;;4.97;;
11396;SDS011;5754;43.726;7.416;2022-10-16T21:27:39;7.63;;;4.93;;
11396;SDS011;5754;43.726;7.416;2022-10-16T21:30:14;4.83;;;4.13;;
11396;SDS011;5754;43.726;7.416;2022-10-16T21:32:49;5.47;;;4.23;;
11396;SDS011;5754;43.726;7.416;2022-10-16T21:35:24;5.10;;;4.30;;
11396;SDS011;5754;43.726;7.416;2022-10-16T21:37:59;6.23;;;4.60;;
11396;SDS011;5754;43.726;7.416;2022-10-16T21:40:33;6.90;;;4.57;;
11396;SDS011;5754;43.726;7.416;2022-10-16T21:43:08;6.67;;;4.40;;
11396;SDS011;5754;43.726;7.416;2022-10-16T21:45:43;7.40;;;4.67;;
11396;SDS011;5754;43.726;7.416;2022-10-16T21:48:18;6.03;;;4.83;;
11396;SDS011;5754;43.726;7.416;2022-10-16T21:50:53;5.57;;;4.90;;
11396;SDS011;5754;43.726;7.416;2022-10-16T21:53:28;7.50;;;4.97;;
11396;SDS011;5754;43.726;7.416;2022-10-16T21:56:03;6.50;;;4.90;;
11396;SDS011;5754;43.726;7.416;2022-10-16T21:58:38;7.70;;;4.37;;
11396;SDS011;5754;43.726;7.416;2022-10-16T22:01:16;6.70;;;4.43;;
11396;SDS011;5754;43.726;7.416;2022-10-16T22:03:51;7.83;;;4.60;;
11396;SDS011;5754;43.726;7.416;2022-10-16T22:06:26;6.20;;;4.83;;
11396;SDS011;5754;43.726;7.416;2022-10-16T22:09:02;6.93;;;4.60;;
11396;SDS011;5754;43.726;7.416;2022-10-16T22:11:40;9.23;;;4.60;;
11396;SDS011;5754;43.726;7.416;2022-10-16T22:14:18;4.90;;;4.10;;
11396;SDS011;5754;43.726;7.416;2022-10-16T22:16:54;4.30;;;3.90;;
11396;SDS011;5754;43.726;7.416;2022-10-16T22:19:30;6.77;;;4.40;;
11396;SDS011;5754;43.726;7.416;2022-10-16T22:22:04;5.30;;;4.17;;
11396;SDS011;5754;43.726;7.416;2022-10-16T22:24:38;5.27;;;3.70;;
11396;SDS011;5754;43.726;7.416;2022-10-16T22:27:14;6.20;;;4.63;;
11396;SDS011;5754;43.726;7.416;2022-10-16T22:29:51;6.87;;;4.20;;
11396;SDS011;5754;43.726;7.416;2022-10-16T22:32:26;7.27;;;4.77;;
11396;SDS011;5754;43.726;7.416;2022-10-16T22:35:00;4.60;;;4.20;;
11396;SDS011;5754;43.726;7.416;2022-10-16T22:37:34;7.10;;;4.07;;
11396;SDS011;5754;43.726;7.416;2022-10-16T22:40:09;4.80;;;4.33;;
11396;SDS011;5754;43.726;7.416;2022-10-16T22:42:44;7.23;;;4.40;;
11396;SDS011;5754;43.726;7.416;2022-10-16T22:45:18;6.33;;;4.13;;
11396;SDS011;5754;43.726;7.416;2022-10-16T22:47:53;6.20;;;4.27;;
11396;SDS011;5754;43.726;7.416;2022-10-16T22:50:27;6.23;;;4.20;;
11396;SDS011;5754;43.726;7.416;2022-10-16T22:53:03;4.37;;;3.90;;
11396;SDS011;5754;43.726;7.416;2022-10-16T22:55:37;4.53;;;4.10;;
11396;SDS011;5754;43.726;7.416;2022-10-16T22:58:12;6.00;;;4.23;;
11396;SDS011;5754;43.726;7.416;2022-10-16T23:00:46;4.77;;;3.80;;
11396;SDS011;5754;43.726;7.416;2022-10-16T23:03:21;6.50;;;4.00;;
11396;SDS011;5754;43.726;7.416;2022-10-16T23:05:55;6.17;;;4.30;;
11396;SDS011;5754;43.726;7.416;2022-10-16T23:08:30;5.53;;;4.50;;
11396;SDS011;5754;43.726;7.416;2022-10-16T23:11:09;6.27;;;4.00;;
11396;SDS011;5754;43.726;7.416;2022-10-16T23:13:43;6.37;;;4.00;;
11396;SDS011;5754;43.726;7.416;2022-10-16T23:16:19;6.60;;;4.10;;
11396;SDS011;5754;43.726;7.416;2022-10-16T23:18:53;6.63;;;3.83;;
11396;SDS011;5754;43.726;7.416;2022-10-16T23:21:28;5.37;;;4.20;;
11396;SDS011;5754;43.726;7.416;2022-10-16T23:24:02;5.83;;;4.20;;
11396;SDS011;5754;43.726;7.416;2022-10-16T23:26:37;5.13;;;4.20;;
11396;SDS011;5754;43.726;7.416;2022-10-16T23:29:11;4.33;;;3.93;;
11396;SDS011;5754;43.726;7.416;2022-10-16T23:31:45;5.77;;;3.80;;
11396;SDS011;5754;43.726;7.416;2022-10-16T23:34:20;5.70;;;4.10;;
11396;SDS011;5754;43.726;7.416;2022-10-16T23:36:54;5.73;;;4.00;;
11396;SDS011;5754;43.726;7.416;2022-10-16T23:39:30;6.83;;;3.77;;
11396;SDS011;5754;43.726;7.416;2022-10-16T23:42:05;5.63;;;4.00;;
11396;SDS011;5754;43.726;7.416;2022-10-16T23:44:39;5.23;;;4.13;;
11396;SDS011;5754;43.726;7.416;2022-10-16T23:47:14;5.60;;;3.97;;
11396;SDS011;5754;43.726;7.416;2022-10-16T23:49:48;3.90;;;3.40;;
11396;SDS011;5754;43.726;7.416;2022-10-16T23:52:23;5.73;;;3.93;;
11396;SDS011;5754;43.726;7.416;2022-10-16T23:54:57;6.13;;;3.37;;
11396;SDS011;5754;43.726;7.416;2022-10-16T23:57:32;4.60;;;4.00;;
